createdAt,value
2017-08-26T00:00:29.262Z,99.90
2017-08-26T00:03:03.392Z,99.90
2017-08-26T00:05:32.033Z,99.90
2017-08-26T00:08:00.428Z,99.90
2017-08-26T00:10:28.703Z,99.90
2017-08-26T00:12:57.295Z,99.90
2017-08-26T00:15:25.584Z,99.90
2017-08-26T00:17:53.898Z,99.90
2017-08-26T00:20:22.769Z,99.90
2017-08-26T00:22:51.051Z,99.90
2017-08-26T00:25:19.431Z,99.90
2017-08-26T00:27:48.122Z,99.90
2017-08-26T00:30:16.415Z,99.90
2017-08-26T00:32:44.732Z,99.90
2017-08-26T00:35:13.362Z,99.90
2017-08-26T00:37:42.301Z,99.90
2017-08-26T00:40:10.608Z,99.90
2017-08-26T00:42:39.164Z,99.90
2017-08-26T00:45:07.475Z,99.90
2017-08-26T00:47:35.780Z,99.90
2017-08-26T00:50:04.340Z,99.90
2017-08-26T00:52:32.672Z,99.90
2017-08-26T00:55:01.015Z,99.90
2017-08-26T00:57:29.642Z,99.90
2017-08-26T00:59:58.025Z,99.90
2017-08-26T01:02:26.291Z,99.90
2017-08-26T01:04:54.898Z,99.90
2017-08-26T01:07:28.972Z,99.90
2017-08-26T01:09:57.598Z,99.90
2017-08-26T01:12:26.391Z,99.90
2017-08-26T01:14:55.396Z,99.90
2017-08-26T01:17:24.741Z,99.90
2017-08-26T01:19:53.036Z,99.90
2017-08-26T01:22:21.850Z,99.90
2017-08-26T01:24:50.453Z,99.90
2017-08-26T01:27:18.752Z,99.90
2017-08-26T01:29:47.064Z,99.90
2017-08-26T01:32:16.426Z,99.90
2017-08-26T01:34:44.801Z,99.90
2017-08-26T01:37:13.081Z,99.90
2017-08-26T01:39:41.700Z,99.90
2017-08-26T01:42:10.745Z,99.90
2017-08-26T01:44:39.056Z,99.90
2017-08-26T01:47:07.716Z,99.90
2017-08-26T01:49:36.135Z,99.90
2017-08-26T01:52:05.527Z,99.90
2017-08-26T01:54:35.001Z,99.90
2017-08-26T01:57:04.121Z,99.90
2017-08-26T01:59:32.442Z,99.90
2017-08-26T02:02:01.140Z,99.90
2017-08-26T02:04:29.448Z,99.90
2017-08-26T02:06:57.745Z,99.90
2017-08-26T02:09:26.381Z,99.90
2017-08-26T02:11:54.699Z,99.90
2017-08-26T02:14:23.032Z,99.90
2017-08-26T02:16:51.610Z,99.90
2017-08-26T02:19:22.975Z,99.90
2017-08-26T02:21:51.556Z,99.90
2017-08-26T02:24:20.532Z,99.90
2017-08-26T02:26:48.853Z,99.90
2017-08-26T02:29:17.437Z,99.90
2017-08-26T02:31:45.715Z,99.90
2017-08-26T02:34:15.465Z,99.90
2017-08-26T02:36:45.129Z,99.90
2017-08-26T02:39:13.459Z,99.90
2017-08-26T02:41:42.016Z,99.90
2017-08-26T02:44:10.603Z,99.90
2017-08-26T02:46:38.898Z,99.90
2017-08-26T02:49:07.236Z,99.90
2017-08-26T02:51:36.277Z,99.90
2017-08-26T02:54:04.590Z,99.90
2017-08-26T02:56:33.355Z,99.90
2017-08-26T02:59:02.650Z,99.90
2017-08-26T03:01:30.940Z,99.90
2017-08-26T03:03:59.297Z,99.90
2017-08-26T03:06:28.535Z,99.90
2017-08-26T03:08:56.833Z,99.90
2017-08-26T03:11:25.324Z,99.90
2017-08-26T03:13:53.951Z,99.90
2017-08-26T03:16:23.027Z,99.90
2017-08-26T03:18:51.323Z,99.90
2017-08-26T03:21:20.035Z,99.90
2017-08-26T03:23:48.350Z,99.90
2017-08-26T03:26:17.407Z,99.90
2017-08-26T03:28:46.216Z,99.90
2017-08-26T03:31:14.609Z,99.90
2017-08-26T03:33:43.254Z,99.90
2017-08-26T03:36:11.902Z,99.90
2017-08-26T03:38:41.081Z,99.90
2017-08-26T03:41:10.425Z,99.90
2017-08-26T03:43:39.894Z,99.90
2017-08-26T03:46:08.697Z,99.90
2017-08-26T03:48:37.080Z,99.90
2017-08-26T03:51:05.858Z,99.90
2017-08-26T03:53:34.138Z,99.90
2017-08-26T03:56:03.330Z,99.90
2017-08-26T03:58:32.579Z,99.90
2017-08-26T04:01:00.881Z,99.90
2017-08-26T04:03:29.185Z,99.90
2017-08-26T04:05:57.776Z,99.90
2017-08-26T04:08:26.099Z,99.90
2017-08-26T04:10:54.373Z,99.90
2017-08-26T04:13:23.053Z,99.90
2017-08-26T04:15:51.441Z,99.90
2017-08-26T04:18:19.720Z,99.90
2017-08-26T04:20:50.059Z,99.90
2017-08-26T04:23:18.509Z,99.90
2017-08-26T04:25:47.122Z,99.90
2017-08-26T04:28:15.711Z,99.90
2017-08-26T04:30:44.039Z,99.90
2017-08-26T04:33:12.334Z,99.90
2017-08-26T04:35:40.951Z,99.90
2017-08-26T04:38:09.243Z,99.90
2017-08-26T04:40:37.570Z,99.90
2017-08-26T04:43:06.194Z,99.90
2017-08-26T04:45:34.500Z,99.90
2017-08-26T04:48:03.355Z,99.90
2017-08-26T04:50:32.996Z,99.90
2017-08-26T04:53:01.288Z,99.90
2017-08-26T04:55:29.617Z,99.90
2017-08-26T04:57:58.968Z,99.90
2017-08-26T05:00:27.310Z,99.90
2017-08-26T05:02:55.597Z,99.90
2017-08-26T05:05:24.202Z,99.90
2017-08-26T05:07:52.592Z,99.90
2017-08-26T05:10:21.508Z,99.90
2017-08-26T05:12:50.079Z,99.90
2017-08-26T05:15:18.477Z,99.90
2017-08-26T05:17:46.760Z,99.90
2017-08-26T05:20:16.174Z,99.90
2017-08-26T05:22:44.555Z,99.90
2017-08-26T05:25:12.831Z,99.90
2017-08-26T05:27:41.431Z,99.90
2017-08-26T05:30:09.746Z,99.90
2017-08-26T05:32:38.060Z,99.90
2017-08-26T05:35:06.677Z,99.90
2017-08-26T05:37:35.565Z,99.90
2017-08-26T05:40:04.559Z,99.90
2017-08-26T05:42:33.169Z,99.90
2017-08-26T05:45:01.461Z,99.90
2017-08-26T05:47:29.741Z,99.90
2017-08-26T05:49:58.705Z,99.90
2017-08-26T05:52:27.016Z,99.90
2017-08-26T05:54:56.214Z,99.90
2017-08-26T05:57:24.872Z,99.90
2017-08-26T05:59:53.168Z,99.90
2017-08-26T06:09:09.443Z,99.90
2017-08-26T06:11:37.748Z,99.90
2017-08-26T06:14:06.840Z,99.90
2017-08-26T06:16:36.169Z,99.90
2017-08-26T06:19:04.455Z,99.90
2017-08-26T06:21:32.756Z,99.90
2017-08-26T06:24:01.403Z,99.90
2017-08-26T06:26:30.015Z,99.90
2017-08-26T06:28:59.203Z,99.90
2017-08-26T06:31:27.786Z,99.90
2017-08-26T06:33:56.092Z,99.90
2017-08-26T06:36:25.044Z,99.90
2017-08-26T06:38:54.343Z,99.90
2017-08-26T06:41:22.641Z,99.90
2017-08-26T06:43:51.316Z,99.90
2017-08-26T06:46:19.943Z,99.90
2017-08-26T06:48:48.890Z,99.90
2017-08-26T06:51:17.177Z,99.90
2017-08-26T06:53:45.750Z,99.90
2017-08-26T06:56:14.025Z,99.90
2017-08-26T06:58:44.137Z,99.90
2017-08-26T07:01:12.776Z,99.90
2017-08-26T07:03:41.047Z,99.90
2017-08-26T07:06:09.344Z,99.90
2017-08-26T07:11:08.911Z,99.90
2017-08-26T07:13:37.212Z,99.90
2017-08-26T07:16:05.854Z,99.90
2017-08-26T07:18:34.148Z,99.90
2017-08-26T07:21:02.695Z,99.90
2017-08-26T07:23:31.291Z,99.90
2017-08-26T07:25:59.597Z,99.90
2017-08-26T07:28:28.614Z,97.70
2017-08-26T07:30:57.896Z,95.40
2017-08-26T07:33:26.164Z,94.70
2017-08-26T07:35:55.002Z,94.60
2017-08-26T07:38:23.605Z,93.50
2017-08-26T07:40:51.891Z,92.70
2017-08-26T07:43:20.206Z,92.50
2017-08-26T07:45:49.618Z,92.10
2017-08-26T07:48:17.924Z,91.00
2017-08-26T07:50:46.934Z,91.60
2017-08-26T07:53:15.593Z,90.70
2017-08-26T07:55:43.957Z,90.10
2017-08-26T07:58:12.249Z,90.40
2017-08-26T08:00:40.799Z,89.80
2017-08-26T08:03:09.136Z,88.80
2017-08-26T08:05:37.430Z,87.60
2017-08-26T08:08:06.049Z,88.30
2017-08-26T08:10:35.332Z,86.50
2017-08-26T08:13:03.604Z,86.30
2017-08-26T08:15:32.530Z,86.90
2017-08-26T08:18:00.820Z,85.00
2017-08-26T08:20:29.105Z,83.80
2017-08-26T08:22:58.520Z,84.20
2017-08-26T08:25:26.860Z,83.10
2017-08-26T08:27:55.173Z,84.50
2017-08-26T08:30:23.813Z,84.20
2017-08-26T08:32:52.109Z,85.70
2017-08-26T08:35:20.378Z,87.80
2017-08-26T08:37:49.018Z,93.80
2017-08-26T08:40:19.045Z,84.60
2017-08-26T08:42:47.350Z,85.70
2017-08-26T08:45:15.968Z,88.10
2017-08-26T08:47:45.157Z,87.80
2017-08-26T08:50:13.448Z,89.30
2017-08-26T08:52:42.227Z,89.30
2017-08-26T08:55:11.695Z,86.00
2017-08-26T08:57:40.718Z,86.70
2017-08-26T09:00:09.302Z,84.60
2017-08-26T09:02:37.646Z,81.60
2017-08-26T09:05:05.937Z,80.50
2017-08-26T09:07:34.569Z,78.60
2017-08-26T09:10:03.949Z,76.70
2017-08-26T09:12:32.257Z,76.10
2017-08-26T09:15:00.818Z,75.20
2017-08-26T09:17:29.110Z,72.40
2017-08-26T09:19:57.379Z,72.30
2017-08-26T09:22:26.004Z,71.70
2017-08-26T09:24:55.319Z,69.50
2017-08-26T09:27:23.647Z,69.20
2017-08-26T09:29:52.293Z,69.10
2017-08-26T09:32:21.210Z,70.10
2017-08-26T09:34:49.540Z,68.90
2017-08-26T09:37:18.203Z,67.80
2017-08-26T09:39:47.028Z,65.00
2017-08-26T09:42:15.313Z,64.70
2017-08-26T09:44:44.015Z,64.00
2017-08-26T09:47:12.564Z,60.90
2017-08-26T09:49:40.888Z,62.00
2017-08-26T09:52:10.396Z,63.80
2017-08-26T09:54:38.704Z,63.10
2017-08-26T09:57:07.294Z,63.60
2017-08-26T09:59:35.879Z,63.70
2017-08-26T10:02:04.198Z,65.10
2017-08-26T10:04:33.167Z,64.80
2017-08-26T10:07:01.810Z,63.90
2017-08-26T10:09:30.151Z,63.80
2017-08-26T10:11:58.452Z,67.20
2017-08-26T10:14:27.771Z,64.50
2017-08-26T10:16:56.058Z,63.80
2017-08-26T10:19:24.346Z,65.10
2017-08-26T10:21:52.922Z,65.00
2017-08-26T10:24:21.253Z,64.90
2017-08-26T10:26:50.382Z,65.10
2017-08-26T10:29:19.573Z,65.10
2017-08-26T10:31:48.620Z,64.70
2017-08-26T10:34:17.156Z,64.60
2017-08-26T10:36:45.735Z,64.80
2017-08-26T10:39:14.175Z,65.10
2017-08-26T10:41:42.468Z,63.60
2017-08-26T10:44:13.877Z,64.20
2017-08-26T10:46:42.221Z,63.30
2017-08-26T10:49:10.531Z,63.40
2017-08-26T10:51:39.885Z,60.30
2017-08-26T10:54:08.300Z,61.10
2017-08-26T10:56:36.579Z,60.60
2017-08-26T10:59:05.965Z,58.90
2017-08-26T11:01:34.336Z,58.90
2017-08-26T11:04:02.630Z,59.00
2017-08-26T11:06:31.221Z,58.80
2017-08-26T11:09:00.652Z,55.70
2017-08-26T11:11:28.938Z,56.10
2017-08-26T11:13:57.299Z,54.90
2017-08-26T11:18:55.539Z,52.50
2017-08-26T11:21:23.824Z,51.60
2017-08-26T11:23:52.112Z,49.70
2017-08-26T11:26:20.731Z,48.80
2017-08-26T11:28:50.085Z,49.20
2017-08-26T11:31:18.378Z,49.70
2017-08-26T11:33:46.976Z,51.50
2017-08-26T11:36:16.148Z,53.80
2017-08-26T11:38:44.450Z,53.90
2017-08-26T11:41:12.762Z,54.50
2017-08-26T11:43:41.868Z,54.40
2017-08-26T11:46:11.074Z,54.80
2017-08-26T11:48:39.645Z,54.70
2017-08-26T11:51:08.020Z,54.10
2017-08-26T11:56:06.108Z,71.40
2017-08-26T12:01:04.185Z,44.60
2017-08-26T12:03:32.490Z,43.50
2017-08-26T12:06:00.803Z,41.40
2017-08-26T12:08:29.407Z,41.40
2017-08-26T12:10:57.670Z,41.40
2017-08-26T12:13:26.399Z,40.80
2017-08-26T12:15:54.881Z,40.60
2017-08-26T12:18:23.219Z,39.50
2017-08-26T12:20:51.811Z,38.80
2017-08-26T12:23:20.545Z,40.10
2017-08-26T12:25:48.838Z,41.30
2017-08-26T12:28:17.425Z,41.20
2017-08-26T12:30:45.715Z,42.10
2017-08-26T12:33:14.000Z,42.30
2017-08-26T12:35:42.637Z,43.30
2017-08-26T12:38:11.116Z,43.50
2017-08-26T12:40:39.434Z,44.60
2017-08-26T12:43:08.125Z,44.70
2017-08-26T12:45:37.372Z,46.30
2017-08-26T12:48:05.650Z,47.50
2017-08-26T12:50:34.000Z,46.00
2017-08-26T12:53:03.284Z,44.40
2017-08-26T12:55:31.863Z,45.10
2017-08-26T12:58:00.265Z,43.80
2017-08-26T13:00:29.883Z,43.30
2017-08-26T13:02:58.592Z,42.20
2017-08-26T13:05:27.204Z,42.10
2017-08-26T13:07:55.466Z,42.90
2017-08-26T13:10:25.150Z,42.90
2017-08-26T13:12:53.510Z,42.90
2017-08-26T13:15:21.905Z,43.00
2017-08-26T13:17:51.509Z,42.80
2017-08-26T13:20:19.829Z,41.60
2017-08-26T13:22:48.825Z,40.10
2017-08-26T13:25:18.149Z,39.40
2017-08-26T13:27:47.224Z,40.10
2017-08-26T13:30:16.245Z,40.10
2017-08-26T13:32:44.876Z,41.00
2017-08-26T13:35:14.836Z,45.10
2017-08-26T13:37:43.108Z,45.60
2017-08-26T13:40:11.674Z,48.20
2017-08-26T13:42:39.992Z,50.30
2017-08-26T13:45:08.341Z,50.20
2017-08-26T13:47:36.978Z,52.20
2017-08-26T13:50:05.287Z,53.90
2017-08-26T13:52:34.561Z,54.70
2017-08-26T13:55:02.918Z,63.90
2017-08-26T13:57:31.586Z,71.10
2017-08-26T14:00:00.257Z,59.50
2017-08-26T14:02:28.971Z,59.80
2017-08-26T14:04:58.401Z,60.30
2017-08-26T14:07:27.056Z,61.90
2017-08-26T14:09:55.391Z,62.30
2017-08-26T14:12:24.231Z,61.10
2017-08-26T14:14:53.660Z,60.30
2017-08-26T14:17:22.852Z,59.40
2017-08-26T14:19:51.187Z,59.60
2017-08-26T14:22:19.815Z,61.00
2017-08-26T14:24:48.826Z,62.20
2017-08-26T14:27:17.132Z,63.20
2017-08-26T14:29:45.838Z,63.00
2017-08-26T14:32:14.126Z,61.50
2017-08-26T14:34:42.416Z,59.00
2017-08-26T14:37:11.464Z,58.40
2017-08-26T14:39:40.673Z,57.80
2017-08-26T14:42:08.946Z,55.30
2017-08-26T14:44:37.647Z,54.40
2017-08-26T14:47:07.801Z,54.30
2017-08-26T14:49:36.071Z,54.50
2017-08-26T14:52:04.650Z,55.50
2017-08-26T14:54:32.932Z,56.20
2017-08-26T14:57:01.223Z,54.50
2017-08-26T14:59:29.888Z,51.90
2017-08-26T15:01:58.855Z,50.70
2017-08-26T15:04:27.309Z,56.70
2017-08-26T15:06:56.374Z,47.80
2017-08-26T15:09:25.092Z,49.00
2017-08-26T15:11:53.626Z,49.00
2017-08-26T15:14:22.043Z,50.40
2017-08-26T15:16:50.438Z,50.50
2017-08-26T15:19:19.164Z,51.70
2017-08-26T15:21:47.473Z,52.50
2017-08-26T15:24:15.793Z,53.60
2017-08-26T15:26:44.451Z,55.90
2017-08-26T15:29:12.755Z,55.70
2017-08-26T15:31:41.508Z,86.00
2017-08-26T15:41:39.467Z,91.80
2017-08-26T15:44:07.780Z,90.70
2017-08-26T15:46:36.474Z,91.20
2017-08-26T15:49:04.760Z,92.40
2017-08-26T15:56:32.247Z,68.00
2017-08-26T15:59:01.781Z,69.70
2017-08-26T16:01:30.450Z,70.40
2017-08-26T16:03:58.776Z,73.50
2017-08-26T16:06:27.078Z,74.20
2017-08-26T16:08:55.451Z,75.90
2017-08-26T16:11:23.773Z,77.30
2017-08-26T16:13:52.475Z,78.60
2017-08-26T16:16:20.745Z,80.00
2017-08-26T16:18:49.129Z,81.00
2017-08-26T16:21:18.280Z,82.20
2017-08-26T16:23:46.605Z,82.80
2017-08-26T16:26:15.295Z,83.80
2017-08-26T16:28:44.460Z,84.00
2017-08-26T16:31:13.974Z,84.10
2017-08-26T16:33:43.185Z,84.30
2017-08-26T16:36:11.486Z,84.80
2017-08-26T16:38:40.715Z,85.30
2017-08-26T16:41:09.425Z,85.40
2017-08-26T16:43:37.766Z,86.10
2017-08-26T16:46:06.062Z,86.90
2017-08-26T16:48:34.767Z,87.30
2017-08-26T16:51:03.316Z,88.50
2017-08-26T16:53:31.625Z,90.00
2017-08-26T16:55:59.993Z,89.90
2017-08-26T16:58:28.297Z,90.50
2017-08-26T17:00:57.937Z,90.50
2017-08-26T17:03:26.229Z,90.60
2017-08-26T17:05:54.527Z,90.80
2017-08-26T17:08:23.132Z,91.30
2017-08-26T17:10:51.819Z,91.50
2017-08-26T17:13:20.190Z,91.60
2017-08-26T17:15:48.814Z,91.70
2017-08-26T17:18:17.103Z,91.90
2017-08-26T17:20:45.730Z,92.30
2017-08-26T17:23:14.064Z,92.40
2017-08-26T17:25:43.085Z,92.60
2017-08-26T17:28:13.058Z,93.20
2017-08-26T17:30:41.448Z,93.10
2017-08-26T17:33:09.771Z,93.30
2017-08-26T17:35:38.430Z,93.70
2017-08-26T17:38:07.063Z,93.80
2017-08-26T17:40:35.389Z,94.10
2017-08-26T17:43:04.284Z,94.00
2017-08-26T17:45:32.586Z,94.40
2017-08-26T17:48:00.871Z,94.50
2017-08-26T17:50:31.159Z,94.80
2017-08-26T17:52:59.448Z,95.00
2017-08-26T17:55:27.787Z,95.10
2017-08-26T17:57:56.149Z,95.40
2017-08-26T18:00:24.799Z,95.70
2017-08-26T18:02:53.417Z,95.80
2017-08-26T18:05:22.514Z,96.20
2017-08-26T18:07:51.512Z,96.40
2017-08-26T18:10:20.155Z,96.80
2017-08-26T18:12:48.485Z,96.80
2017-08-26T18:15:18.159Z,97.10
2017-08-26T18:17:46.500Z,97.80
2017-08-26T18:20:14.787Z,97.80
2017-08-26T18:22:43.115Z,98.10
2017-08-26T18:25:11.450Z,98.40
2017-08-26T18:27:40.066Z,98.60
2017-08-26T18:30:08.374Z,98.90
2017-08-26T18:32:36.671Z,99.20
2017-08-26T18:35:05.068Z,99.50
2017-08-26T18:37:33.380Z,99.80
2017-08-26T18:40:02.014Z,99.80
2017-08-26T18:42:31.135Z,99.90
2017-08-26T18:44:59.450Z,99.90
2017-08-26T18:47:28.194Z,99.90
2017-08-26T18:49:56.516Z,99.90
2017-08-26T18:52:24.865Z,99.90
2017-08-26T18:54:53.262Z,99.90
2017-08-26T18:57:22.559Z,99.90
2017-08-26T18:59:51.163Z,99.90
2017-08-26T19:02:19.497Z,99.90
2017-08-26T19:04:47.816Z,99.90
2017-08-26T19:07:16.170Z,99.90
2017-08-26T19:09:44.540Z,99.90
2017-08-26T19:12:13.203Z,99.90
2017-08-26T19:14:42.242Z,99.90
2017-08-26T19:17:10.524Z,99.90
2017-08-26T19:19:38.851Z,99.90
2017-08-26T19:22:07.191Z,99.90
2017-08-26T19:24:35.779Z,99.90
2017-08-26T19:27:04.101Z,99.90
2017-08-26T19:29:32.475Z,99.90
2017-08-26T19:32:01.610Z,99.90
2017-08-26T19:34:31.017Z,99.90
2017-08-26T19:36:59.995Z,99.90
2017-08-26T19:39:29.019Z,99.90
2017-08-26T19:41:57.880Z,99.90
2017-08-26T19:44:26.239Z,99.90
2017-08-26T19:46:54.549Z,99.90
2017-08-26T19:49:23.331Z,99.90
2017-08-26T19:51:52.339Z,99.90
2017-08-26T19:54:20.728Z,99.90
2017-08-26T19:56:50.953Z,99.90
2017-08-26T19:59:19.274Z,99.90
2017-08-26T20:01:48.085Z,99.90
2017-08-26T20:04:16.433Z,99.90
2017-08-26T20:06:44.746Z,99.90
2017-08-26T20:09:13.359Z,99.90
2017-08-26T20:11:42.239Z,99.90
2017-08-26T20:14:10.534Z,99.90
2017-08-26T20:16:39.097Z,99.90
2017-08-26T20:19:07.436Z,99.90
2017-08-26T20:21:35.763Z,99.90
2017-08-26T20:24:04.087Z,99.90
2017-08-26T20:26:32.457Z,99.90
2017-08-26T20:29:01.877Z,99.90
2017-08-26T20:31:30.199Z,99.90
2017-08-26T20:33:58.525Z,99.90
2017-08-26T20:36:27.142Z,99.90
2017-08-26T20:38:55.489Z,99.90
2017-08-26T20:41:23.810Z,99.90
2017-08-26T20:43:52.481Z,99.90
2017-08-26T20:46:20.797Z,99.90
2017-08-26T20:48:49.086Z,99.90
2017-08-26T20:51:17.822Z,99.90
2017-08-26T20:53:46.137Z,99.90
2017-08-26T20:56:14.814Z,99.90
2017-08-26T20:58:43.417Z,99.90
2017-08-26T21:01:13.519Z,99.90
2017-08-26T21:03:41.861Z,99.90
2017-08-26T21:06:10.166Z,99.90
2017-08-26T21:08:39.590Z,99.90
2017-08-26T21:11:08.206Z,99.90
2017-08-26T21:13:36.633Z,99.90
2017-08-26T21:16:05.248Z,99.90
2017-08-26T21:18:33.576Z,99.90
2017-08-26T21:21:01.872Z,99.90
2017-08-26T21:23:31.140Z,99.90
2017-08-26T21:25:59.898Z,99.90
2017-08-26T21:28:28.254Z,99.90
2017-08-26T21:30:56.858Z,99.90
2017-08-26T21:33:25.249Z,99.90
2017-08-26T21:35:53.670Z,99.90
2017-08-26T21:38:22.007Z,99.90
2017-08-26T21:40:50.347Z,99.90
2017-08-26T21:43:20.020Z,99.90
2017-08-26T21:45:49.246Z,99.90
2017-08-26T21:48:17.641Z,99.90
2017-08-26T21:50:46.630Z,99.90
2017-08-26T21:53:14.960Z,99.90
2017-08-26T21:55:43.292Z,99.90
2017-08-26T21:58:11.641Z,99.90
2017-08-26T22:00:40.005Z,99.90
2017-08-26T22:03:09.355Z,99.90
2017-08-26T22:05:37.670Z,99.90
2017-08-26T22:08:05.996Z,99.90
2017-08-26T22:10:34.307Z,99.90
2017-08-26T22:13:02.615Z,99.90
2017-08-26T22:15:31.294Z,99.90
2017-08-26T22:17:59.584Z,99.90
2017-08-26T22:20:27.880Z,99.90
2017-08-26T22:22:56.217Z,99.90
2017-08-26T22:25:24.540Z,99.90
2017-08-26T22:27:53.116Z,99.90
2017-08-26T22:30:22.043Z,99.90
2017-08-26T22:32:50.340Z,99.90
2017-08-26T22:35:19.080Z,99.90
2017-08-26T22:37:47.384Z,99.90
2017-08-26T22:40:16.289Z,99.90
2017-08-26T22:42:44.925Z,99.90
2017-08-26T22:45:13.874Z,99.90
2017-08-26T22:47:42.597Z,99.90
2017-08-26T22:50:10.922Z,99.90
2017-08-26T22:52:40.044Z,99.90
2017-08-26T22:55:08.679Z,99.90
2017-08-26T22:57:37.038Z,99.90
2017-08-26T23:00:05.356Z,99.90
2017-08-26T23:02:34.662Z,99.90
2017-08-26T23:05:04.376Z,99.90
2017-08-26T23:07:33.045Z,99.90
2017-08-26T23:10:01.376Z,99.90
2017-08-26T23:12:30.016Z,99.90
2017-08-26T23:14:58.599Z,99.90
2017-08-26T23:17:27.702Z,99.90
2017-08-26T23:19:57.929Z,99.90
2017-08-26T23:22:27.633Z,99.90
2017-08-26T23:24:55.976Z,99.90
2017-08-26T23:27:24.599Z,99.90
2017-08-26T23:29:53.012Z,99.90
2017-08-26T23:32:21.348Z,99.90
2017-08-26T23:34:49.957Z,99.90
2017-08-26T23:37:18.937Z,99.90
2017-08-26T23:39:47.252Z,99.90
2017-08-26T23:42:16.003Z,99.90
2017-08-26T23:44:44.336Z,99.90
2017-08-26T23:47:12.625Z,99.90
2017-08-26T23:49:40.991Z,99.90
2017-08-26T23:52:09.793Z,99.90
2017-08-26T23:54:38.599Z,99.90
2017-08-26T23:57:07.478Z,99.90
2017-08-26T23:59:35.786Z,99.90
